createdAt,value
2023-04-16T00:01:15.677Z,79.27
2023-04-16T00:03:41.942Z,79.27
2023-04-16T00:06:08.210Z,79.02
2023-04-16T00:08:35.178Z,78.97
2023-04-16T00:11:01.254Z,79.15
2023-04-16T00:13:27.400Z,79.37
2023-04-16T00:15:53.550Z,79.21
2023-04-16T00:18:20.810Z,79.20
2023-04-16T00:20:46.879Z,79.16
2023-04-16T00:23:12.944Z,79.18
2023-04-16T00:25:39.250Z,79.24
2023-04-16T00:28:05.550Z,79.16
2023-04-16T00:30:31.653Z,78.98
2023-04-16T00:32:58.037Z,78.86
2023-04-16T00:35:24.122Z,79.16
2023-04-16T00:37:50.303Z,79.25
2023-04-16T00:40:16.354Z,79.38
2023-04-16T00:42:42.512Z,79.69
2023-04-16T00:45:08.641Z,79.81
2023-04-16T00:47:34.703Z,79.77
2023-04-16T00:50:00.802Z,79.66
2023-04-16T00:52:27.071Z,80.18
2023-04-16T00:54:53.118Z,81.38
2023-04-16T00:57:20.412Z,81.32
2023-04-16T00:59:46.721Z,81.20
2023-04-16T01:02:13.768Z,81.49
2023-04-16T01:04:39.994Z,81.40
2023-04-16T01:07:06.096Z,81.11
2023-04-16T01:09:32.225Z,80.81
2023-04-16T01:11:58.365Z,80.76
2023-04-16T01:14:24.462Z,80.94
2023-04-16T01:16:50.541Z,81.19
2023-04-16T01:19:16.592Z,81.07
2023-04-16T01:21:42.681Z,80.78
2023-04-16T01:24:08.759Z,80.52
2023-04-16T01:26:34.847Z,80.39
2023-04-16T01:29:00.988Z,80.02
2023-04-16T01:31:27.076Z,79.81
2023-04-16T01:33:53.249Z,79.81
2023-04-16T01:36:19.756Z,79.88
2023-04-16T01:38:45.962Z,79.98
2023-04-16T01:41:12.074Z,80.15
2023-04-16T01:43:40.216Z,80.10
2023-04-16T01:46:06.612Z,80.20
2023-04-16T01:48:32.679Z,80.27
2023-04-16T01:50:59.946Z,80.07
2023-04-16T01:53:26.201Z,80.47
2023-04-16T01:55:52.301Z,80.93
2023-04-16T01:58:18.428Z,81.02
2023-04-16T02:00:44.548Z,81.32
2023-04-16T02:03:10.930Z,81.34
2023-04-16T02:05:37.131Z,81.28
2023-04-16T02:08:03.354Z,81.30
2023-04-16T02:10:29.471Z,81.29
2023-04-16T02:12:55.905Z,81.14
2023-04-16T02:15:23.239Z,80.75
2023-04-16T02:17:54.278Z,80.40
2023-04-16T02:20:20.520Z,80.43
2023-04-16T02:22:46.574Z,81.04
2023-04-16T02:25:13.547Z,81.44
2023-04-16T02:27:39.810Z,81.32
2023-04-16T02:30:05.918Z,81.57
2023-04-16T02:32:32.032Z,81.59
2023-04-16T02:34:58.155Z,81.40
2023-04-16T02:37:25.189Z,81.42
2023-04-16T02:39:52.530Z,81.38
2023-04-16T02:42:18.634Z,81.39
2023-04-16T02:44:44.674Z,81.26
2023-04-16T02:47:10.754Z,81.31
2023-04-16T02:49:36.839Z,81.47
2023-04-16T02:52:02.879Z,81.24
2023-04-16T02:54:29.137Z,81.13
2023-04-16T02:56:55.437Z,81.23
2023-04-16T02:59:21.496Z,81.01
2023-04-16T03:01:47.723Z,80.94
2023-04-16T03:04:13.996Z,80.91
2023-04-16T03:06:40.205Z,80.95
2023-04-16T03:09:06.482Z,81.00
2023-04-16T03:11:32.653Z,80.98
2023-04-16T03:13:58.711Z,80.92
2023-04-16T03:16:24.872Z,81.20
2023-04-16T03:18:51.052Z,81.34
2023-04-16T03:21:17.128Z,81.52
2023-04-16T03:23:43.364Z,81.58
2023-04-16T03:26:09.691Z,81.43
2023-04-16T03:28:35.754Z,81.30
2023-04-16T03:31:01.862Z,81.32
2023-04-16T03:33:28.234Z,81.46
2023-04-16T03:35:54.286Z,81.21
2023-04-16T03:38:20.484Z,80.84
2023-04-16T03:40:46.550Z,80.58
2023-04-16T03:43:12.679Z,80.32
2023-04-16T03:45:38.726Z,80.20
2023-04-16T03:48:04.820Z,80.17
2023-04-16T03:50:30.948Z,80.18
2023-04-16T03:52:57.109Z,80.43
2023-04-16T03:55:23.470Z,80.48
2023-04-16T03:57:49.516Z,80.37
2023-04-16T04:00:15.870Z,80.44
2023-04-16T04:02:42.110Z,80.34
2023-04-16T04:05:08.344Z,80.21
2023-04-16T04:07:34.683Z,80.22
2023-04-16T04:10:00.809Z,80.31
2023-04-16T04:12:26.890Z,80.48
2023-04-16T04:14:53.049Z,80.64
2023-04-16T04:17:19.122Z,80.61
2023-04-16T04:19:59.930Z,80.53
2023-04-16T04:22:26.904Z,80.35
2023-04-16T04:24:53.035Z,80.13
2023-04-16T04:27:19.090Z,79.79
2023-04-16T04:29:45.506Z,79.87
2023-04-16T04:32:11.560Z,79.91
2023-04-16T04:34:37.640Z,79.85
2023-04-16T04:37:03.778Z,79.89
2023-04-16T04:39:29.834Z,79.74
2023-04-16T04:41:55.947Z,79.45
2023-04-16T04:44:22.178Z,79.51
2023-04-16T04:46:48.235Z,79.92
2023-04-16T04:49:14.303Z,79.93
2023-04-16T04:51:40.728Z,79.99
2023-04-16T04:54:06.773Z,79.90
2023-04-16T04:56:33.006Z,79.75
2023-04-16T04:58:59.076Z,79.87
2023-04-16T05:01:25.378Z,80.08
2023-04-16T05:03:51.562Z,80.43
2023-04-16T05:06:17.770Z,80.74
2023-04-16T05:08:43.933Z,80.81
2023-04-16T05:11:10.086Z,80.96
2023-04-16T05:13:36.402Z,80.80
2023-04-16T05:16:02.494Z,79.94
2023-04-16T05:18:28.538Z,79.33
2023-04-16T05:20:55.278Z,79.00
2023-04-16T05:23:21.406Z,79.13
2023-04-16T05:25:47.465Z,79.27
2023-04-16T05:28:13.535Z,79.51
2023-04-16T05:30:39.601Z,79.63
2023-04-16T05:33:05.803Z,79.90
2023-04-16T05:35:31.913Z,80.16
2023-04-16T05:37:58.034Z,80.39
2023-04-16T05:40:24.072Z,80.59
2023-04-16T05:42:50.255Z,80.97
2023-04-16T05:45:16.335Z,81.59
2023-04-16T05:47:42.419Z,81.70
2023-04-16T05:50:08.737Z,82.15
2023-04-16T05:52:34.833Z,82.32
2023-04-16T05:55:01.014Z,82.56
2023-04-16T05:57:27.212Z,82.87
2023-04-16T05:59:53.268Z,84.84
2023-04-16T06:02:19.472Z,85.86
2023-04-16T06:04:45.738Z,82.63
2023-04-16T06:07:11.873Z,81.46
2023-04-16T06:09:38.031Z,81.57
2023-04-16T06:12:04.210Z,81.66
2023-04-16T06:14:30.390Z,81.99
2023-04-16T06:16:56.451Z,82.01
2023-04-16T06:19:22.563Z,81.96
2023-04-16T06:21:48.626Z,81.92
2023-04-16T06:24:14.967Z,82.21
2023-04-16T06:26:41.078Z,82.15
2023-04-16T06:29:07.436Z,81.91
2023-04-16T06:31:33.785Z,81.97
2023-04-16T06:34:00.062Z,82.11
2023-04-16T06:36:27.307Z,82.01
2023-04-16T06:38:53.470Z,82.16
2023-04-16T06:41:19.696Z,82.44
2023-04-16T06:43:46.072Z,82.07
2023-04-16T06:46:12.332Z,81.78
2023-04-16T06:48:38.696Z,81.65
2023-04-16T06:51:04.971Z,81.49
2023-04-16T06:53:31.197Z,81.55
2023-04-16T06:55:57.296Z,81.26
2023-04-16T06:58:23.762Z,80.92
2023-04-16T07:00:50.204Z,80.89
2023-04-16T07:03:16.551Z,80.15
2023-04-16T07:05:42.845Z,79.79
2023-04-16T07:08:09.013Z,79.63
2023-04-16T07:10:35.460Z,79.71
2023-04-16T07:13:01.904Z,79.64
2023-04-16T07:15:28.182Z,79.45
2023-04-16T07:17:54.408Z,79.23
2023-04-16T07:20:20.741Z,79.04
2023-04-16T07:22:46.968Z,78.67
2023-04-16T07:25:13.491Z,78.84
2023-04-16T07:27:39.705Z,77.20
2023-04-16T07:30:05.918Z,77.47
2023-04-16T07:32:32.274Z,76.79
2023-04-16T07:34:58.580Z,76.63
2023-04-16T07:37:24.727Z,77.00
2023-04-16T07:39:51.903Z,77.40
2023-04-16T07:42:17.954Z,77.42
2023-04-16T07:44:43.995Z,77.46
2023-04-16T07:47:10.285Z,76.93
2023-04-16T07:49:36.489Z,76.62
2023-04-16T07:52:02.599Z,75.67
2023-04-16T07:54:30.932Z,75.77
2023-04-16T07:56:57.027Z,75.86
2023-04-16T07:59:24.350Z,75.56
2023-04-16T08:01:50.871Z,74.73
2023-04-16T08:04:22.410Z,74.82
2023-04-16T08:06:48.926Z,74.03
2023-04-16T08:09:15.403Z,74.54
2023-04-16T08:11:41.468Z,74.27
2023-04-16T08:14:07.587Z,73.74
2023-04-16T08:16:33.730Z,73.21
2023-04-16T08:19:00.464Z,72.48
2023-04-16T08:21:27.174Z,72.04
2023-04-16T08:23:53.250Z,71.91
2023-04-16T08:26:19.310Z,71.91
2023-04-16T08:28:45.673Z,71.07
2023-04-16T08:31:11.805Z,70.74
2023-04-16T08:33:37.890Z,70.59
2023-04-16T08:36:04.123Z,70.76
2023-04-16T08:38:30.238Z,69.66
2023-04-16T08:40:56.302Z,68.68
2023-04-16T08:43:22.567Z,67.21
2023-04-16T08:45:48.743Z,65.81
2023-04-16T08:48:15.044Z,65.52
2023-04-16T08:50:41.325Z,63.86
2023-04-16T08:53:07.573Z,65.25
2023-04-16T08:55:33.658Z,64.49
2023-04-16T08:58:00.040Z,62.99
2023-04-16T09:00:26.360Z,64.41
2023-04-16T09:02:52.644Z,65.05
2023-04-16T09:05:21.048Z,64.26
2023-04-16T09:07:47.170Z,63.85
2023-04-16T09:10:13.310Z,63.69
2023-04-16T09:12:39.526Z,62.41
2023-04-16T09:15:05.840Z,64.58
2023-04-16T09:17:32.025Z,64.17
2023-04-16T09:19:58.436Z,64.66
2023-04-16T09:22:24.746Z,62.60
2023-04-16T09:24:50.827Z,62.93
2023-04-16T09:27:16.938Z,63.00
2023-04-16T09:29:43.362Z,63.32
2023-04-16T09:32:09.836Z,61.59
2023-04-16T09:34:36.118Z,61.62
2023-04-16T09:37:02.231Z,61.16
2023-04-16T09:39:28.338Z,60.97
2023-04-16T09:41:55.496Z,61.37
2023-04-16T09:44:21.630Z,61.15
2023-04-16T09:46:47.742Z,60.28
2023-04-16T09:49:14.194Z,60.92
2023-04-16T09:51:40.627Z,61.39
2023-04-16T09:54:06.693Z,59.54
2023-04-16T09:56:32.752Z,59.79
2023-04-16T09:58:58.876Z,60.41
2023-04-16T10:01:25.357Z,60.76
2023-04-16T10:03:51.664Z,58.73
2023-04-16T10:06:18.978Z,58.67
2023-04-16T10:08:45.209Z,58.46
2023-04-16T10:11:11.301Z,57.88
2023-04-16T10:13:37.593Z,59.08
2023-04-16T10:16:03.732Z,57.40
2023-04-16T10:18:29.804Z,56.62
2023-04-16T10:20:56.031Z,56.34
2023-04-16T10:23:22.267Z,57.94
2023-04-16T10:25:48.317Z,58.18
2023-04-16T10:28:14.442Z,56.54
2023-04-16T10:30:41.681Z,56.74
2023-04-16T10:33:07.909Z,56.54
2023-04-16T10:35:34.156Z,56.89
2023-04-16T10:38:00.226Z,55.81
2023-04-16T10:40:26.336Z,54.99
2023-04-16T10:42:52.451Z,54.98
2023-04-16T10:45:18.571Z,53.07
2023-04-16T10:47:44.810Z,51.64
2023-04-16T10:50:10.940Z,52.91
2023-04-16T10:52:37.142Z,53.34
2023-04-16T10:55:03.234Z,53.05
2023-04-16T10:57:30.172Z,53.09
2023-04-16T10:59:56.337Z,51.74
2023-04-16T11:02:23.315Z,52.21
2023-04-16T11:04:51.135Z,51.63
2023-04-16T11:07:17.390Z,51.86
2023-04-16T11:09:46.561Z,51.60
2023-04-16T11:12:12.672Z,50.95
2023-04-16T11:14:38.696Z,50.60
2023-04-16T11:17:04.849Z,50.44
2023-04-16T11:19:30.984Z,50.16
2023-04-16T11:21:57.044Z,50.51
2023-04-16T11:24:24.636Z,50.01
2023-04-16T11:26:52.350Z,48.76
2023-04-16T11:29:18.402Z,48.85
2023-04-16T11:31:45.448Z,47.23
2023-04-16T11:34:11.589Z,49.04
2023-04-16T11:36:37.661Z,48.24
2023-04-16T11:39:03.810Z,47.70
2023-04-16T11:41:30.121Z,47.47
2023-04-16T11:43:56.708Z,47.44
2023-04-16T11:46:27.689Z,47.63
2023-04-16T11:48:54.811Z,47.19
2023-04-16T11:51:22.490Z,47.71
2023-04-16T11:53:48.653Z,48.98
2023-04-16T11:56:15.254Z,48.89
2023-04-16T11:58:43.051Z,48.10
2023-04-16T12:01:09.501Z,48.34
2023-04-16T12:03:36.813Z,48.07
2023-04-16T12:06:03.031Z,48.53
2023-04-16T12:08:30.200Z,48.38
2023-04-16T12:10:57.444Z,48.02
2023-04-16T12:13:23.503Z,47.46
2023-04-16T12:15:49.646Z,47.58
2023-04-16T12:18:15.919Z,47.12
2023-04-16T12:20:41.972Z,47.77
2023-04-16T12:23:08.065Z,48.04
2023-04-16T12:25:34.417Z,48.30
2023-04-16T12:28:01.533Z,46.73
2023-04-16T12:30:27.739Z,46.84
2023-04-16T12:32:53.926Z,47.74
2023-04-16T12:35:20.592Z,48.63
2023-04-16T12:37:46.649Z,47.64
2023-04-16T12:40:12.897Z,47.36
2023-04-16T12:42:38.970Z,47.83
2023-04-16T12:45:05.379Z,46.74
2023-04-16T12:47:31.697Z,46.82
2023-04-16T12:49:57.878Z,46.92
2023-04-16T12:52:23.948Z,46.56
2023-04-16T12:54:50.109Z,46.74
2023-04-16T12:57:16.284Z,47.57
2023-04-16T12:59:42.352Z,47.65
2023-04-16T13:02:08.725Z,47.65
2023-04-16T13:04:35.332Z,48.29
2023-04-16T13:07:01.527Z,47.35
2023-04-16T13:09:28.010Z,46.43
2023-04-16T13:11:54.068Z,46.87
2023-04-16T13:14:20.437Z,47.00
2023-04-16T13:16:46.609Z,47.16
2023-04-16T13:19:12.856Z,47.51
2023-04-16T13:21:39.840Z,47.25
2023-04-16T13:24:05.954Z,46.71
2023-04-16T13:26:32.008Z,46.32
2023-04-16T13:28:58.051Z,45.46
2023-04-16T13:31:24.423Z,45.14
2023-04-16T13:33:50.659Z,45.46
2023-04-16T13:36:16.852Z,46.49
2023-04-16T13:38:43.203Z,46.35
2023-04-16T13:41:09.238Z,46.02
2023-04-16T13:43:35.324Z,46.88
2023-04-16T13:46:01.516Z,46.22
2023-04-16T13:48:27.670Z,45.67
2023-04-16T13:50:54.000Z,46.83
2023-04-16T13:53:21.341Z,47.97
2023-04-16T13:55:48.902Z,48.37
2023-04-16T13:58:15.025Z,49.10
2023-04-16T14:00:41.187Z,50.54
2023-04-16T14:03:07.332Z,50.24
2023-04-16T14:05:33.623Z,49.89
2023-04-16T14:07:59.859Z,49.94
2023-04-16T14:10:26.047Z,50.17
2023-04-16T14:12:52.237Z,50.83
2023-04-16T14:15:18.374Z,50.11
2023-04-16T14:17:44.652Z,50.04
2023-04-16T14:20:11.059Z,50.59
2023-04-16T14:22:37.336Z,50.11
2023-04-16T14:25:03.406Z,49.85
2023-04-16T14:27:29.593Z,49.18
2023-04-16T14:29:55.721Z,48.50
2023-04-16T14:32:21.825Z,48.76
2023-04-16T14:34:48.014Z,49.24
2023-04-16T14:37:14.185Z,49.52
2023-04-16T14:39:40.485Z,49.31
2023-04-16T14:42:06.607Z,49.38
2023-04-16T14:44:32.772Z,49.35
2023-04-16T14:46:58.853Z,49.78
2023-04-16T14:49:25.661Z,49.66
2023-04-16T14:51:51.853Z,50.59
2023-04-16T14:54:18.695Z,50.12
2023-04-16T14:56:45.045Z,49.90
2023-04-16T14:59:11.471Z,50.27
2023-04-16T15:01:41.265Z,50.67
2023-04-16T15:04:08.154Z,50.32
2023-04-16T15:06:36.073Z,50.87
2023-04-16T15:09:03.275Z,50.32
2023-04-16T15:11:29.593Z,50.99
2023-04-16T15:13:55.689Z,51.17
2023-04-16T15:16:21.809Z,52.11
2023-04-16T15:18:48.035Z,52.46
2023-04-16T15:21:14.246Z,53.20
2023-04-16T15:23:40.347Z,53.43
2023-04-16T15:26:06.571Z,53.94
2023-04-16T15:28:32.653Z,53.65
2023-04-16T15:30:58.799Z,54.10
2023-04-16T15:33:25.746Z,53.63
2023-04-16T15:35:51.879Z,53.67
2023-04-16T15:38:17.980Z,54.03
2023-04-16T15:40:44.056Z,53.79
2023-04-16T15:43:10.288Z,53.84
2023-04-16T15:45:36.862Z,54.31
2023-04-16T15:48:04.687Z,54.49
2023-04-16T15:50:30.997Z,53.96
2023-04-16T15:52:57.078Z,54.59
2023-04-16T15:55:23.206Z,54.13
2023-04-16T15:57:49.522Z,54.52
2023-04-16T16:00:16.488Z,54.75
2023-04-16T16:02:42.941Z,54.97
2023-04-16T16:05:09.508Z,55.03
2023-04-16T16:07:35.604Z,55.30
2023-04-16T16:10:01.853Z,55.54
2023-04-16T16:12:28.031Z,55.54
2023-04-16T16:14:54.108Z,55.59
2023-04-16T16:17:20.915Z,55.36
2023-04-16T16:19:47.103Z,55.60
2023-04-16T16:22:13.324Z,56.16
2023-04-16T16:24:39.402Z,56.25
2023-04-16T16:27:05.713Z,56.52
2023-04-16T16:29:31.757Z,56.47
2023-04-16T16:31:58.122Z,56.31
2023-04-16T16:34:24.311Z,56.33
2023-04-16T16:36:50.610Z,56.40
2023-04-16T16:39:16.769Z,56.70
2023-04-16T16:41:43.014Z,56.57
2023-04-16T16:44:09.060Z,56.87
2023-04-16T16:46:35.962Z,57.11
2023-04-16T16:49:04.534Z,57.15
2023-04-16T16:51:32.849Z,57.24
2023-04-16T16:53:58.954Z,57.38
2023-04-16T16:56:25.143Z,57.39
2023-04-16T16:58:51.204Z,57.29
2023-04-16T17:01:17.533Z,57.40
2023-04-16T17:03:43.835Z,57.56
2023-04-16T17:06:10.303Z,57.67
2023-04-16T17:08:36.406Z,57.86
2023-04-16T17:11:02.505Z,58.06
2023-04-16T17:13:29.438Z,57.78
2023-04-16T17:15:55.735Z,57.97
2023-04-16T17:18:21.871Z,58.05
2023-04-16T17:20:48.085Z,57.84
2023-04-16T17:23:14.198Z,58.00
2023-04-16T17:25:40.782Z,58.11
2023-04-16T17:28:06.925Z,58.12
2023-04-16T17:30:33.408Z,57.97
2023-04-16T17:32:59.851Z,58.06
2023-04-16T17:35:26.031Z,58.22
2023-04-16T17:37:52.190Z,58.55
2023-04-16T17:40:18.645Z,59.32
2023-04-16T17:42:44.965Z,59.61
2023-04-16T17:45:11.649Z,59.70
2023-04-16T17:47:38.220Z,59.74
2023-04-16T17:50:04.389Z,59.81
2023-04-16T17:52:30.611Z,59.91
2023-04-16T17:55:00.733Z,59.99
2023-04-16T17:57:26.815Z,60.01
2023-04-16T17:59:53.026Z,60.14
2023-04-16T18:02:19.800Z,60.46
2023-04-16T18:04:46.295Z,60.68
2023-04-16T18:07:12.843Z,60.65
2023-04-16T18:09:39.094Z,60.62
2023-04-16T18:12:05.695Z,60.59
2023-04-16T18:14:32.002Z,61.10
2023-04-16T18:16:58.403Z,61.50
2023-04-16T18:19:24.740Z,61.67
2023-04-16T18:21:51.049Z,61.96
2023-04-16T18:24:17.270Z,62.39
2023-04-16T18:26:46.622Z,62.66
2023-04-16T18:29:13.870Z,62.83
2023-04-16T18:31:40.536Z,62.87
2023-04-16T18:34:06.942Z,63.00
2023-04-16T18:36:33.396Z,63.02
2023-04-16T18:39:02.457Z,63.31
2023-04-16T18:41:29.365Z,64.20
2023-04-16T18:43:55.996Z,64.39
2023-04-16T18:46:22.592Z,64.70
2023-04-16T18:48:51.867Z,64.93
2023-04-16T18:51:18.361Z,65.29
2023-04-16T18:53:44.997Z,65.52
2023-04-16T18:56:11.500Z,65.87
2023-04-16T18:58:38.194Z,66.11
2023-04-16T19:01:07.147Z,66.41
2023-04-16T19:03:33.570Z,66.41
2023-04-16T19:06:00.878Z,66.19
2023-04-16T19:08:28.100Z,65.92
2023-04-16T19:10:54.672Z,65.98
2023-04-16T19:13:21.098Z,66.24
2023-04-16T19:15:47.874Z,66.17
2023-04-16T19:18:14.250Z,66.23
2023-04-16T19:20:41.768Z,66.50
2023-04-16T19:23:08.629Z,66.62
2023-04-16T19:25:35.794Z,66.70
2023-04-16T19:28:04.130Z,66.69
2023-04-16T19:30:30.569Z,66.80
2023-04-16T19:32:58.012Z,67.18
2023-04-16T19:35:24.687Z,67.32
2023-04-16T19:37:51.067Z,67.33
2023-04-16T19:40:18.102Z,67.60
2023-04-16T19:42:44.776Z,67.84
2023-04-16T19:45:11.015Z,67.81
2023-04-16T19:47:38.419Z,67.74
2023-04-16T19:50:05.224Z,67.59
2023-04-16T19:52:36.789Z,67.47
2023-04-16T19:55:04.166Z,67.31
2023-04-16T19:57:30.484Z,67.17
2023-04-16T19:59:57.051Z,67.10
2023-04-16T20:02:24.110Z,67.21
2023-04-16T20:04:52.304Z,67.46
2023-04-16T20:07:18.491Z,67.89
2023-04-16T20:09:44.876Z,68.41
2023-04-16T20:12:11.183Z,68.68
2023-04-16T20:14:37.536Z,69.26
2023-04-16T20:17:09.068Z,69.52
2023-04-16T20:19:37.345Z,69.96
2023-04-16T20:22:03.454Z,70.19
2023-04-16T20:24:30.357Z,70.09
2023-04-16T20:26:56.558Z,69.87
2023-04-16T20:29:22.683Z,69.71
2023-04-16T20:31:48.738Z,69.58
2023-04-16T20:34:14.924Z,69.51
2023-04-16T20:36:41.017Z,69.58
2023-04-16T20:39:07.318Z,69.45
2023-04-16T20:41:33.532Z,69.32
2023-04-16T20:44:04.646Z,69.17
2023-04-16T20:46:33.494Z,69.23
2023-04-16T20:49:00.460Z,69.25
2023-04-16T20:51:29.488Z,69.40
2023-04-16T20:53:55.626Z,69.52
2023-04-16T20:56:21.685Z,69.90
2023-04-16T20:58:47.831Z,69.93
2023-04-16T21:01:13.970Z,70.08
2023-04-16T21:03:40.474Z,70.12
2023-04-16T21:06:06.862Z,70.22
2023-04-16T21:08:32.913Z,70.25
2023-04-16T21:10:59.018Z,70.26
2023-04-16T21:13:25.306Z,70.29
2023-04-16T21:15:51.470Z,70.41
2023-04-16T21:18:17.918Z,70.49
2023-04-16T21:20:44.204Z,70.43
2023-04-16T21:23:10.236Z,70.35
2023-04-16T21:25:36.280Z,70.39
2023-04-16T21:28:02.368Z,70.50
2023-04-16T21:30:28.702Z,71.14
2023-04-16T21:32:54.835Z,71.16
2023-04-16T21:35:21.056Z,71.12
2023-04-16T21:37:47.090Z,71.14
2023-04-16T21:40:13.185Z,71.12
2023-04-16T21:42:41.440Z,71.20
2023-04-16T21:45:07.705Z,71.04
2023-04-16T21:47:33.795Z,71.12
2023-04-16T21:50:00.138Z,71.39
2023-04-16T21:52:26.221Z,71.64
2023-04-16T21:54:52.353Z,71.97
2023-04-16T21:57:18.533Z,72.27
2023-04-16T21:59:44.879Z,72.61
2023-04-16T22:02:11.024Z,72.81
2023-04-16T22:04:38.040Z,72.82
2023-04-16T22:07:04.990Z,72.93
2023-04-16T22:09:31.674Z,73.03
2023-04-16T22:11:57.786Z,73.46
2023-04-16T22:14:24.056Z,73.60
2023-04-16T22:16:51.561Z,73.53
2023-04-16T22:19:19.080Z,73.71
2023-04-16T22:21:45.251Z,73.77
2023-04-16T22:24:11.643Z,73.94
2023-04-16T22:26:37.766Z,73.80
2023-04-16T22:29:03.802Z,73.76
2023-04-16T22:31:29.941Z,73.90
2023-04-16T22:33:56.062Z,74.11
2023-04-16T22:36:22.116Z,74.14
2023-04-16T22:38:48.170Z,74.28
2023-04-16T22:41:14.728Z,75.07
2023-04-16T22:43:42.302Z,75.19
2023-04-16T22:46:08.827Z,75.20
2023-04-16T22:48:38.298Z,74.99
2023-04-16T22:51:04.373Z,74.92
2023-04-16T22:53:30.569Z,74.81
2023-04-16T22:55:56.650Z,74.79
2023-04-16T22:58:22.761Z,74.93
2023-04-16T23:00:48.870Z,74.97
2023-04-16T23:03:15.252Z,74.80
2023-04-16T23:05:41.493Z,74.78
2023-04-16T23:08:07.712Z,74.80
2023-04-16T23:10:34.099Z,74.95
2023-04-16T23:13:00.326Z,75.14
2023-04-16T23:15:26.526Z,75.09
2023-04-16T23:17:52.751Z,75.01
2023-04-16T23:20:19.005Z,74.90
2023-04-16T23:22:45.973Z,74.92
2023-04-16T23:25:12.508Z,74.84
2023-04-16T23:27:38.724Z,74.80
2023-04-16T23:30:05.042Z,74.70
2023-04-16T23:32:31.271Z,74.63
2023-04-16T23:34:57.626Z,74.86
2023-04-16T23:37:23.777Z,75.06
2023-04-16T23:39:49.981Z,75.11
2023-04-16T23:42:16.313Z,75.34
2023-04-16T23:44:42.441Z,75.83
2023-04-16T23:47:08.950Z,76.00
2023-04-16T23:49:35.112Z,75.82
2023-04-16T23:52:01.248Z,75.89
2023-04-16T23:54:27.492Z,76.37
2023-04-16T23:56:53.651Z,76.67
2023-04-16T23:59:19.877Z,76.71
